Date,TemperatureHighF,TemperatureAvgF,TemperatureLowF,DewpointHighF,DewpointAvgF,DewpointLowF,HumidityHigh,HumidityAvg,HumidityLow,PressureMaxIn,PressureMinIn,WindSpeedMaxMPH,WindSpeedAvgMPH,GustSpeedMaxMPH,PrecipitationSumIn
2013-6-1,87.8,75.2,62.6,70.4,65.7,60.4,96,75,46,30.43,30.23,26,5,26,0.12
2013-6-2,76.6,69.4,55.8,67.4,62.8,51.6,97,81,53,30.34,30.15,31,9,31,0.57
2013-6-3,63.3,55.7,50.1,53.9,45.8,39.0,88,70,43,30.49,30.33,15,5,15,0.00
2013-6-4,67.5,56.1,46.2,47.8,42.8,35.3,91,64,34,30.64,30.49,12,4,12,0.00
2013-6-5,68.5,57.7,46.8,54.7,45.5,38.4,92,65,42,30.70,30.57,8,2,8,0.00
2013-6-6,57.0,55.2,53.1,55.6,51.7,45.4,97,88,70,30.58,30.33,10,3,10,2.45
2013-6-7,61.3,58.2,55.5,60.2,57.2,54.9,98,97,94,30.33,30.26,4,1,4,0.16
2013-6-8,63.2,58.5,54.8,60.2,56.6,54.2,99,94,81,30.55,30.27,9,3,9,0.02
2013-6-9,75.9,64.1,53.0,59.8,54.9,51.2,95,74,48,30.67,30.55,9,3,9,0.00
2013-6-10,68.5,63.4,56.2,63.5,59.4,54.4,96,87,71,30.60,30.19,14,4,14,0.37
2013-6-11,66.2,63.2,56.1,63.2,60.6,53.6,98,91,79,30.30,30.11,20,6,20,0.28
2013-6-12,75.1,64.2,52.4,58.4,54.8,51.3,97,74,47,30.41,30.25,7,2,7,0.00
2013-6-13,63.7,59.7,53.5,58.7,56.8,52.8,98,90,78,30.25,29.99,14,4,14,0.94
2013-6-14,73.6,62.9,52.5,62.2,56.5,51.9,98,81,57,30.43,30.25,14,4,14,0.00
2013-6-15,75.4,64.3,52.2,57.7,53.1,47.5,97,69,38,30.52,30.42,12,4,12,0.00
2013-6-16,74.5,66.1,60.7,67.0,59.9,53.3,95,81,72,30.42,30.17,16,4,16,0.30
2013-6-17,77.2,67.8,59.3,67.4,61.4,57.9,96,81,56,30.40,30.29,20,4,20,0.25
2013-6-18,69.3,60.8,51.3,59.1,52.7,47.6,97,77,48,30.50,30.36,10,2,10,0.00
2013-6-19,67.3,58.1,46.4,51.8,46.5,37.4,97,69,34,30.68,30.50,8,2,8,0.00
2013-6-20,75.0,59.4,40.8,58.4,47.0,40.3,98,69,32,30.74,30.68,9,1,9,0.00
2013-6-21,82.8,65.6,46.7,62.1,52.9,45.9,98,68,31,30.76,30.64,6,1,6,0.00
2013-6-22,85.5,72.4,56.2,74.4,65.1,54.8,97,80,51,30.65,30.47,12,2,12,0.04
2013-6-23,87.9,77.4,67.9,76.0,70.2,65.9,96,80,62,30.53,30.45,12,3,12,0.01
2013-6-24,87.6,78.7,69.5,72.5,66.5,61.8,85,67,47,30.49,30.39,20,7,20,0.00
2013-6-25,82.5,75.2,65.8,71.3,66.5,62.8,92,75,61,30.40,30.25,20,7,20,0.04
2013-6-26,85.6,73.9,65.8,73.0,67.6,63.4,96,81,59,30.29,30.23,13,5,13,0.03
2013-6-27,80.3,71.4,61.1,72.6,67.4,60.3,98,88,71,30.28,30.08,12,2,12,0.70
2013-6-28,66.4,64.2,61.1,65.8,63.0,60.0,98,96,92,30.08,29.97,8,1,8,0.20
2013-6-29,77.0,66.9,61.3,68.8,63.1,60.7,98,89,61,30.16,29.98,6,1,6,0.36
2013-6-30,78.2,69.2,60.7,69.8,64.0,60.1,98,85,65,30.40,30.16,5,1,5,0.01